Time;durP1;ratioP1;P1;durP2;ratioP2;P2;SDS_P1;SDS_P2;PMS_P1;PMS_P2;Temp;Humidity;BMP_temperature;BMP_pressure;BME280_temperature;BME280_humidity;BME280_pressure;Samples;Min_cycle;Max_cycle;Signal;HPM_P1;HPM_P2
2022/12/26 00:00:24;;;;;;;5.80;1.27;;;7.70;99.90;;;;;;4969824;28;20050;-95
2022/12/26 00:02:49;;;;;;;11.48;2.05;;;7.70;99.90;;;;;;4970669;28;20031;-94
2022/12/26 00:05:15;;;;;;;24.73;2.78;;;7.70;99.90;;;;;;4969588;28;20058;-94
2022/12/26 00:07:41;;;;;;;9.82;2.00;;;7.70;99.90;;;;;;4969694;28;20400;-94
2022/12/26 00:10:07;;;;;;;10.15;2.75;;;7.70;99.90;;;;;;4969865;28;20031;-94
2022/12/26 00:12:34;;;;;;;11.35;2.17;;;7.70;99.90;;;;;;4986868;28;20436;-93
2022/12/26 00:14:59;;;;;;;11.75;2.40;;;7.70;99.90;;;;;;4968980;28;20498;-94
2022/12/26 00:17:25;;;;;;;13.10;1.88;;;7.70;99.90;;;;;;4969185;28;20118;-95
2022/12/26 00:19:51;;;;;;;9.00;1.73;;;7.70;99.90;;;;;;4968646;28;20038;-96
2022/12/26 00:22:17;;;;;;;6.82;1.65;;;7.80;99.90;;;;;;4969660;28;20019;-94
2022/12/26 00:24:42;;;;;;;6.75;1.73;;;7.80;99.90;;;;;;4968909;28;20027;-95
2022/12/26 00:27:08;;;;;;;8.55;2.03;;;7.80;99.90;;;;;;4969626;28;20158;-95
2022/12/26 00:29:34;;;;;;;14.32;2.40;;;7.80;99.90;;;;;;4970750;28;20043;-95
2022/12/26 00:31:59;;;;;;;9.85;2.30;;;7.80;99.90;;;;;;4970764;28;20034;-95
2022/12/26 00:34:25;;;;;;;13.85;1.95;;;7.80;99.90;;;;;;4969074;28;20026;-93
2022/12/26 00:36:51;;;;;;;11.27;2.45;;;7.90;99.90;;;;;;4970299;28;20050;-94
2022/12/26 00:39:16;;;;;;;8.95;1.40;;;7.90;99.90;;;;;;4985806;28;20058;-93
2022/12/26 00:41:42;;;;;;;7.80;1.63;;;8.00;99.90;;;;;;4987612;28;20054;-95
2022/12/26 00:44:08;;;;;;;2.67;1.75;;;8.00;99.90;;;;;;4970693;28;20023;-95
2022/12/26 00:46:34;;;;;;;11.15;1.60;;;8.00;99.90;;;;;;4968555;28;20027;-93
2022/12/26 00:48:59;;;;;;;9.93;1.58;;;8.00;99.90;;;;;;4984970;28;20031;-94
2022/12/26 00:51:25;;;;;;;21.20;1.75;;;8.00;99.90;;;;;;4967663;28;20030;-95
2022/12/26 00:53:51;;;;;;;10.70;3.08;;;8.00;99.90;;;;;;4966839;28;20023;-93
2022/12/26 00:56:16;;;;;;;11.57;1.75;;;8.00;99.90;;;;;;4966486;28;20090;-94
2022/12/26 00:58:42;;;;;;;8.52;1.60;;;8.00;99.90;;;;;;4951709;28;20047;-94
2022/12/26 01:01:16;;;;;;;7.45;1.63;;;8.00;99.90;;;;;;4967319;28;20033;-95
2022/12/26 01:03:43;;;;;;;4.10;0.73;;;8.00;99.90;;;;;;4986254;28;20034;-94
2022/12/26 01:06:09;;;;;;;7.25;1.40;;;8.00;99.90;;;;;;4985591;28;20105;-94
2022/12/26 01:08:35;;;;;;;5.05;1.55;;;8.00;99.90;;;;;;4984901;28;20027;-93
2022/12/26 01:11:07;;;;;;;4.70;0.90;;;8.00;99.90;;;;;;4953045;28;20110;-93
2022/12/26 01:13:34;;;;;;;6.45;1.20;;;8.00;99.90;;;;;;4967953;28;20504;-93
2022/12/26 01:15:59;;;;;;;6.93;1.02;;;8.00;99.90;;;;;;4967301;28;20481;-93
2022/12/26 01:18:25;;;;;;;1.67;0.65;;;8.00;99.90;;;;;;4972186;28;20039;-93
2022/12/26 01:20:56;;;;;;;2.35;0.50;;;8.00;99.90;;;;;;4972655;28;20027;-95
2022/12/26 01:23:21;;;;;;;3.40;0.80;;;8.00;99.90;;;;;;4968625;28;20038;-92
2022/12/26 01:25:47;;;;;;;1.75;0.75;;;8.00;99.90;;;;;;4968351;28;20031;-92
2022/12/26 01:28:13;;;;;;;4.15;0.68;;;8.10;99.90;;;;;;4967613;28;20118;-94
2022/12/26 01:30:38;;;;;;;3.63;0.85;;;8.10;99.90;;;;;;4969030;28;20027;-94
2022/12/26 01:33:04;;;;;;;2.05;0.80;;;8.00;99.90;;;;;;4985644;28;20027;-94
2022/12/26 01:35:30;;;;;;;0.57;0.22;;;8.00;99.90;;;;;;4967037;28;20035;-93
2022/12/26 01:37:57;;;;;;;2.00;0.60;;;7.90;99.90;;;;;;4983399;28;20066;-94
2022/12/26 01:40:23;;;;;;;3.33;0.60;;;7.60;99.90;;;;;;4965955;28;20053;-95
2022/12/26 01:42:49;;;;;;;0.75;0.30;;;7.40;99.90;;;;;;4965860;28;20023;-93
2022/12/26 01:45:30;;;;;;;1.58;0.32;;;7.20;99.90;;;;;;4967296;28;20031;-93
2022/12/26 01:48:35;;;;;;;1.73;0.40;;;6.90;99.90;;;;;;4966664;28;20091;-93
2022/12/26 01:51:04;;;;;;;1.80;0.47;;;6.60;99.90;;;;;;4908361;29;20126;-93
2022/12/26 01:53:35;;;;;;;1.30;0.52;;;6.40;99.90;;;;;;4908092;29;20035;-93
2022/12/26 01:56:09;;;;;;;2.28;0.52;;;6.10;99.90;;;;;;4923492;29;20111;-93
2022/12/26 01:58:41;;;;;;;1.88;0.60;;;5.80;99.90;;;;;;4923374;29;20044;-94
2022/12/26 02:01:08;;;;;;;0.50;0.50;;;5.60;99.90;;;;;;4907862;29;20534;-91
2022/12/26 02:06:42;;;;;;;1.38;0.60;;;5.40;99.90;;;;;;4885494;29;20041;-93
2022/12/26 02:09:08;;;;;;;0.85;0.60;;;5.30;99.90;;;;;;4888316;29;20041;-94
2022/12/26 02:11:44;;;;;;;3.03;0.47;;;5.20;99.90;;;;;;4887847;29;20045;-93
2022/12/26 02:14:10;;;;;;;0.35;0.35;;;5.10;99.90;;;;;;4887962;29;20033;-93
2022/12/26 02:16:38;;;;;;;0.32;0.32;;;5.00;99.90;;;;;;4871284;29;20033;-93
2022/12/26 02:19:11;;;;;;;1.30;0.32;;;4.90;99.90;;;;;;4885869;29;20052;-95
2022/12/26 02:22:07;;;;;;;0.88;0.30;;;4.90;99.90;;;;;;4905086;29;20036;-92
2022/12/26 02:24:57;;;;;;;1.13;0.28;;;4.80;99.90;;;;;;4924987;29;20107;-95
2022/12/26 02:27:50;;;;;;;0.75;0.20;;;4.80;99.90;;;;;;4909530;29;20036;-94
2022/12/26 02:30:34;;;;;;;0.20;0.20;;;4.70;99.90;;;;;;4926245;29;20123;-95
2022/12/26 02:33:19;;;;;;;0.63;0.20;;;4.60;99.90;;;;;;4909149;29;20040;-94
2022/12/26 02:35:45;;;;;;;0.20;0.20;;;4.70;99.90;;;;;;4908424;29;20647;-92
2022/12/26 02:38:22;;;;;;;0.63;0.20;;;4.60;99.90;;;;;;4954550;28;20038;-94
2022/12/26 02:40:55;;;;;;;0.30;0.30;;;4.60;99.90;;;;;;4984382;28;20042;-95
2022/12/26 02:43:36;;;;;;;0.20;0.10;;;4.60;99.90;;;;;;4965397;28;20035;-94
2022/12/26 02:49:16;;;;;;;2.30;0.10;;;4.60;99.90;;;;;;4982810;28;20042;-93
2022/12/26 03:15:01;;;;;;;1.60;0.10;;;4.10;99.90;;;;;;4983415;28;20086;-93
2022/12/26 03:17:37;;;;;;;1.30;0.30;;;4.00;99.90;;;;;;4967118;28;20279;-94
2022/12/26 03:20:08;;;;;;;7.82;0.52;;;4.00;99.90;;;;;;4967093;28;20035;-93
2022/12/26 03:22:46;;;;;;;4.90;0.40;;;3.90;99.90;;;;;;4967535;28;20019;-92
2022/12/26 03:28:14;;;;;;;1.20;0.47;;;3.80;99.90;;;;;;4988448;28;20086;-94
2022/12/26 03:30:49;;;;;;;3.97;0.77;;;3.80;99.90;;;;;;4969049;28;20063;-93
2022/12/26 03:36:16;;;;;;;6.07;0.60;;;3.80;99.90;;;;;;4982171;28;20063;-94
2022/12/26 03:38:54;;;;;;;;;;;3.80;99.90;;;;;;4965665;28;20034;-96
2022/12/26 04:19:45;;;;;;;7.53;0.68;;;3.10;99.90;;;;;;4985202;28;20241;-95
2022/12/26 04:45:05;;;;;;;6.15;0.45;;;2.90;99.90;;;;;;4985392;28;20049;-94
2022/12/26 04:47:32;;;;;;;4.68;1.00;;;2.90;99.90;;;;;;4967456;28;20027;-94
2022/12/26 04:50:13;;;;;;;3.70;0.52;;;2.90;99.90;;;;;;4967109;28;20085;-94
2022/12/26 04:52:59;;;;;;;8.23;1.00;;;2.90;99.90;;;;;;4968113;28;20185;-94
2022/12/26 04:55:30;;;;;;;4.90;0.73;;;2.90;99.90;;;;;;4984292;28;20043;-94
2022/12/26 04:57:57;;;;;;;6.20;0.93;;;2.80;99.90;;;;;;4967503;28;20066;-93
2022/12/26 05:00:26;;;;;;;8.60;0.90;;;2.90;99.90;;;;;;4984292;28;20077;-94
2022/12/26 05:09:33;;;;;;;4.75;0.90;;;2.80;99.90;;;;;;4984827;28;20081;-93
2022/12/26 05:11:28;;;;;;;7.28;1.23;;;2.70;99.90;;;;;;4986038;28;20088;-94
2022/12/26 05:13:55;;;;;;;8.18;0.95;;;2.80;99.90;;;;;;4967035;28;20023;-94
2022/12/26 05:30:08;;;;;;;10.27;1.35;;;2.60;99.90;;;;;;4984895;28;20050;-94
2022/12/26 05:35:19;;;;;;;6.72;0.70;;;2.60;99.90;;;;;;4986099;28;20041;-93
2022/12/26 05:37:45;;;;;;;10.30;1.13;;;2.60;99.90;;;;;;4967298;28;20023;-94
2022/12/26 05:40:10;;;;;;;13.88;2.58;;;2.60;99.90;;;;;;4966833;28;20037;-94
2022/12/26 05:42:37;;;;;;;11.65;1.48;;;2.60;99.90;;;;;;4966373;28;20078;-93
2022/12/26 05:45:03;;;;;;;5.10;1.30;;;2.50;99.90;;;;;;4966522;28;20058;-93
2022/12/26 05:47:29;;;;;;;4.57;0.70;;;2.50;99.90;;;;;;4965726;28;20019;-94
2022/12/26 05:49:54;;;;;;;8.77;0.98;;;2.60;99.90;;;;;;4966731;28;20026;-93
2022/12/26 05:52:20;;;;;;;7.72;0.80;;;2.50;99.90;;;;;;4984119;28;20027;-94
2022/12/26 05:54:48;;;;;;;3.72;0.63;;;2.50;99.90;;;;;;4966745;28;20027;-95
2022/12/26 05:57:14;;;;;;;7.90;1.50;;;2.50;99.90;;;;;;4967873;28;20035;-94
2022/12/26 05:59:41;;;;;;;11.07;0.98;;;2.40;99.90;;;;;;4985124;28;20066;-93
2022/12/26 06:02:06;;;;;;;7.85;0.77;;;2.40;99.90;;;;;;4967869;28;20035;-95
2022/12/26 06:04:34;;;;;;;10.45;0.90;;;2.40;99.90;;;;;;4967981;28;20027;-93
2022/12/26 06:06:59;;;;;;;8.68;1.85;;;2.40;99.90;;;;;;4968429;28;20051;-93
2022/12/26 06:09:25;;;;;;;4.50;0.82;;;2.40;99.90;;;;;;4968373;28;20033;-94
2022/12/26 06:11:50;;;;;;;9.52;1.17;;;2.40;99.90;;;;;;4968331;28;20070;-95
2022/12/26 06:14:16;;;;;;;4.80;1.05;;;2.40;99.90;;;;;;4984811;28;20019;-94
2022/12/26 06:16:42;;;;;;;10.15;1.13;;;2.30;99.90;;;;;;4967592;28;20034;-94
2022/12/26 06:19:08;;;;;;;9.20;0.98;;;2.30;99.90;;;;;;4983209;28;20077;-94
2022/12/26 06:21:33;;;;;;;12.70;1.98;;;2.30;99.90;;;;;;4984195;28;20027;-95
2022/12/26 06:23:59;;;;;;;5.43;1.02;;;2.30;99.90;;;;;;4966933;28;20027;-94
2022/12/26 06:26:25;;;;;;;9.48;1.30;;;2.40;99.90;;;;;;4966274;28;20055;-95
2022/12/26 06:28:50;;;;;;;9.77;1.55;;;2.40;99.90;;;;;;4965833;28;20050;-94
2022/12/26 06:31:19;;;;;;;9.15;1.02;;;2.40;99.90;;;;;;4966356;28;20042;-94
2022/12/26 06:33:46;;;;;;;17.15;1.55;;;2.50;99.90;;;;;;4983319;28;20018;-94
2022/12/26 06:36:14;;;;;;;14.90;1.20;;;2.40;99.90;;;;;;4967405;28;20031;-95
2022/12/26 06:38:40;;;;;;;8.95;1.10;;;2.40;99.90;;;;;;4969192;28;20056;-93
2022/12/26 06:41:09;;;;;;;12.82;1.23;;;2.50;99.90;;;;;;4966683;28;20030;-94
2022/12/26 06:43:35;;;;;;;12.95;1.10;;;2.50;99.90;;;;;;4965182;28;20038;-94
2022/12/26 06:46:02;;;;;;;4.97;0.85;;;2.40;99.90;;;;;;4966886;28;20027;-94
2022/12/26 06:48:28;;;;;;;4.65;0.82;;;2.50;99.90;;;;;;4968006;28;20090;-93
2022/12/26 06:50:54;;;;;;;14.93;2.05;;;2.50;99.90;;;;;;4966201;28;20031;-92
2022/12/26 06:53:23;;;;;;;8.45;1.70;;;2.50;99.90;;;;;;4965068;28;20023;-94
2022/12/26 06:55:51;;;;;;;8.80;1.48;;;2.50;99.90;;;;;;4964878;28;20337;-94
2022/12/26 06:58:17;;;;;;;7.13;1.00;;;2.50;99.90;;;;;;4964533;28;20117;-95
2022/12/26 07:00:43;;;;;;;9.63;1.20;;;2.50;99.90;;;;;;4964571;28;20031;-94
2022/12/26 07:03:10;;;;;;;6.65;1.38;;;2.40;99.90;;;;;;4965087;28;20470;-94
2022/12/26 07:05:36;;;;;;;11.88;0.80;;;2.40;99.90;;;;;;4964623;28;20046;-95
2022/12/26 07:08:02;;;;;;;6.68;1.15;;;2.40;99.90;;;;;;4967284;28;20023;-93
2022/12/26 07:10:28;;;;;;;9.48;1.23;;;2.40;99.90;;;;;;4968435;28;20061;-94
2022/12/26 07:12:54;;;;;;;10.68;1.23;;;2.30;99.90;;;;;;4968621;28;20070;-95
2022/12/26 07:15:19;;;;;;;10.80;1.30;;;2.30;99.90;;;;;;4968312;28;20033;-95
2022/12/26 07:17:45;;;;;;;4.38;1.83;;;2.30;99.90;;;;;;4968355;28;20034;-95
2022/12/26 07:20:11;;;;;;;5.95;1.83;;;2.30;99.90;;;;;;4965447;28;20102;-94
2022/12/26 07:22:37;;;;;;;14.52;1.50;;;2.30;99.90;;;;;;4965743;28;20023;-93
2022/12/26 07:25:03;;;;;;;4.82;1.60;;;2.20;99.90;;;;;;4964894;28;20030;-94
2022/12/26 07:27:29;;;;;;;4.57;1.00;;;2.20;99.90;;;;;;4965148;28;20023;-95
2022/12/26 07:29:54;;;;;;;7.45;1.02;;;2.20;99.90;;;;;;4965613;28;20031;-94
2022/12/26 07:32:20;;;;;;;6.28;1.55;;;2.20;99.90;;;;;;4965472;28;20058;-93
2022/12/26 07:34:46;;;;;;;10.50;1.38;;;2.20;99.90;;;;;;4964887;28;20567;-93
2022/12/26 07:37:11;;;;;;;7.40;1.10;;;2.20;99.90;;;;;;4965648;28;20089;-95
2022/12/26 07:39:37;;;;;;;17.10;1.10;;;2.20;99.90;;;;;;4968217;28;20039;-94
2022/12/26 07:42:04;;;;;;;11.63;1.38;;;2.20;99.90;;;;;;4954672;28;20054;-95
2022/12/26 07:44:31;;;;;;;9.98;1.20;;;2.20;99.90;;;;;;4973535;28;20026;-93
2022/12/26 07:46:58;;;;;;;6.57;1.27;;;2.20;99.90;;;;;;4981271;28;20023;-94
2022/12/26 07:49:24;;;;;;;8.60;1.08;;;2.30;99.90;;;;;;4995635;28;20031;-95
2022/12/26 07:51:50;;;;;;;13.32;1.35;;;2.30;99.90;;;;;;4972472;28;20054;-94
2022/12/26 07:54:17;;;;;;;5.25;0.93;;;2.30;99.90;;;;;;4978331;28;20003;-95
2022/12/26 07:56:43;;;;;;;14.00;1.38;;;2.30;99.90;;;;;;4984678;28;20039;-93
2022/12/26 07:59:14;;;;;;;13.40;2.17;;;2.30;99.90;;;;;;4985392;28;20029;-90
2022/12/26 08:01:40;;;;;;;4.50;0.85;;;2.30;99.90;;;;;;4985051;28;20027;-91
2022/12/26 08:04:06;;;;;;;11.45;1.48;;;2.30;99.90;;;;;;4985138;28;20011;-90
2022/12/26 08:06:32;;;;;;;7.25;1.45;;;2.30;99.90;;;;;;4983964;28;20070;-92
2022/12/26 08:08:58;;;;;;;7.70;1.67;;;2.30;99.90;;;;;;4977585;28;20027;-94
2022/12/26 08:11:24;;;;;;;7.57;1.00;;;2.30;99.90;;;;;;4985509;28;20037;-94
2022/12/26 08:13:51;;;;;;;8.52;1.27;;;2.40;99.90;;;;;;4969080;28;20053;-94
2022/12/26 08:16:18;;;;;;;11.82;1.23;;;2.40;99.90;;;;;;4970150;28;20018;-94
2022/12/26 08:18:46;;;;;;;7.35;1.05;;;2.40;99.90;;;;;;4986529;28;20101;-94
2022/12/26 08:21:12;;;;;;;12.18;1.80;;;2.40;99.90;;;;;;4971079;28;20087;-95
2022/12/26 08:23:38;;;;;;;22.27;2.78;;;2.40;99.90;;;;;;4986634;28;20053;-93
2022/12/26 08:26:10;;;;;;;9.35;1.73;;;2.40;99.90;;;;;;4969108;28;20023;-93
2022/12/26 08:28:36;;;;;;;6.45;1.23;;;2.40;99.90;;;;;;4969595;28;20046;-93
2022/12/26 08:31:18;;;;;;;12.70;2.40;;;2.40;99.90;;;;;;4954130;28;20034;-95
2022/12/26 08:33:44;;;;;;;9.70;1.70;;;2.50;99.90;;;;;;4986692;28;20551;-94
2022/12/26 08:36:11;;;;;;;11.65;1.50;;;2.60;99.90;;;;;;4970061;28;20027;-93
2022/12/26 08:38:39;;;;;;;10.50;1.27;;;2.60;99.90;;;;;;4986927;28;20035;-94
2022/12/26 08:41:05;;;;;;;13.05;1.30;;;2.60;99.90;;;;;;4968189;28;20485;-96
2022/12/26 08:43:31;;;;;;;9.18;1.40;;;2.60;99.90;;;;;;4953266;28;20042;-92
2022/12/26 08:46:08;;;;;;;7.35;1.40;;;2.60;99.90;;;;;;4968054;28;20181;-92
2022/12/26 08:48:35;;;;;;;8.93;1.88;;;2.60;99.90;;;;;;4984889;28;20058;-94
2022/12/26 08:51:07;;;;;;;7.15;1.35;;;2.60;99.90;;;;;;4983135;28;20050;-95
2022/12/26 08:53:37;;;;;;;11.98;1.80;;;2.60;99.90;;;;;;4967454;28;20023;-93
2022/12/26 08:56:04;;;;;;;12.27;2.13;;;2.70;99.90;;;;;;4986257;28;20031;-94
2022/12/26 08:58:32;;;;;;;6.85;0.80;;;2.70;99.90;;;;;;4989041;28;20037;-95
2022/12/26 09:01:12;;;;;;;4.47;1.00;;;2.70;99.90;;;;;;4993382;28;20098;-94
2022/12/26 09:03:39;;;;;;;4.15;0.77;;;2.70;99.90;;;;;;4970495;28;20078;-92
2022/12/26 09:06:05;;;;;;;8.95;1.10;;;2.80;99.90;;;;;;4973273;28;20055;-94
2022/12/26 09:08:33;;;;;;;4.68;0.98;;;2.90;99.90;;;;;;4977829;28;20039;-93
2022/12/26 09:11:08;;;;;;;4.07;1.08;;;2.90;99.90;;;;;;4992733;28;20065;-94
2022/12/26 09:13:36;;;;;;;7.75;1.60;;;2.90;99.90;;;;;;4993782;28;20038;-93
2022/12/26 09:16:07;;;;;;;5.45;1.17;;;2.90;99.90;;;;;;4977383;28;20023;-93
2022/12/26 09:18:34;;;;;;;6.63;1.15;;;2.90;99.90;;;;;;4981997;28;20047;-94
2022/12/26 09:21:20;;;;;;;7.30;1.60;;;2.90;99.90;;;;;;4982736;28;20038;-95
2022/12/26 09:23:46;;;;;;;4.35;1.20;;;3.00;99.90;;;;;;4976649;28;20034;-95
2022/12/26 09:26:20;;;;;;;7.40;1.27;;;3.00;99.90;;;;;;4956821;28;20035;-94
2022/12/26 09:28:46;;;;;;;9.65;1.05;;;3.00;99.90;;;;;;4969815;28;20026;-92
2022/12/26 09:31:17;;;;;;;5.53;1.38;;;3.10;99.90;;;;;;4952058;28;20066;-94
2022/12/26 09:33:42;;;;;;;6.97;1.73;;;3.10;99.90;;;;;;4969095;28;20051;-93
2022/12/26 09:36:11;;;;;;;7.18;0.98;;;3.10;99.90;;;;;;4971964;28;20082;-94
2022/12/26 09:38:37;;;;;;;7.95;1.35;;;3.20;99.90;;;;;;4970515;28;20043;-94
2022/12/26 09:41:18;;;;;;;5.78;1.20;;;3.30;99.90;;;;;;4967594;28;20515;-93
2022/12/26 09:43:49;;;;;;;8.23;1.67;;;3.30;99.90;;;;;;4971905;28;20027;-94
2022/12/26 09:46:18;;;;;;;5.70;1.23;;;3.40;99.90;;;;;;4990092;28;20038;-93
2022/12/26 09:49:21;;;;;;;7.03;1.63;;;3.50;99.90;;;;;;4969346;28;20402;-92
2022/12/26 09:51:57;;;;;;;6.25;1.45;;;3.50;99.90;;;;;;4983307;28;20025;-91
2022/12/26 09:54:43;;;;;;;11.57;1.80;;;3.60;99.90;;;;;;4969716;28;20033;-87
2022/12/26 09:57:21;;;;;;;6.70;1.20;;;3.80;99.90;;;;;;4989264;28;20050;-94
2022/12/26 09:59:51;;;;;;;3.58;0.90;;;4.00;99.90;;;;;;4986856;28;20031;-92
2022/12/26 10:02:20;;;;;;;12.85;1.25;;;4.20;99.90;;;;;;4967728;28;20023;-95
2022/12/26 10:04:46;;;;;;;10.80;1.35;;;4.40;99.90;;;;;;4985728;28;20035;-96
2022/12/26 10:07:22;;;;;;;9.20;0.98;;;4.50;99.90;;;;;;4985572;28;20079;-95
2022/12/26 10:09:56;;;;;;;4.68;0.85;;;4.70;99.90;;;;;;4974468;28;20034;-95
2022/12/26 10:12:49;;;;;;;5.15;1.20;;;4.90;99.90;;;;;;4983890;28;20392;-93
2022/12/26 10:15:17;;;;;;;4.97;0.88;;;5.10;99.90;;;;;;4987960;28;20045;-93
2022/12/26 10:18:12;;;;;;;6.05;1.60;;;5.30;99.90;;;;;;4966470;28;20026;-94
2022/12/26 10:21:16;;;;;;;8.43;1.73;;;5.50;99.90;;;;;;4983572;28;20073;-91
2022/12/26 10:23:48;;;;;;;11.48;1.00;;;5.70;99.90;;;;;;4914275;29;20028;-93
2022/12/26 10:26:22;;;;;;;3.05;0.98;;;5.90;99.90;;;;;;4930599;29;20051;-95
2022/12/26 10:29:09;;;;;;;4.13;0.50;;;5.90;99.90;;;;;;4915283;29;20079;-94
2022/12/26 10:31:59;;;;;;;4.53;1.00;;;6.10;99.90;;;;;;4914729;29;20036;-95
2022/12/26 10:34:39;;;;;;;5.07;0.80;;;6.20;99.90;;;;;;4914684;29;20069;-93
2022/12/26 10:37:34;;;;;;;6.82;0.75;;;6.40;99.90;;;;;;4923014;29;20450;-94
2022/12/26 10:40:23;;;;;;;9.77;1.38;;;6.60;99.90;;;;;;4917287;29;20036;-86
2022/12/26 10:42:58;;;;;;;6.15;0.95;;;6.80;99.90;;;;;;4915904;29;20040;-94
2022/12/26 10:45:44;;;;;;;2.60;1.02;;;7.10;99.90;;;;;;4918416;29;20040;-95
2022/12/26 10:48:13;;;;;;;3.17;1.10;;;7.30;99.90;;;;;;4929475;29;20067;-94
2022/12/26 10:50:43;;;;;;;8.40;1.40;;;7.50;99.90;;;;;;4907398;29;20499;-94
2022/12/26 10:53:12;;;;;;;7.28;0.98;;;7.60;99.90;;;;;;4906245;29;20072;-95
2022/12/26 10:55:40;;;;;;;5.18;1.02;;;7.80;99.90;;;;;;4908911;29;20036;-96
2022/12/26 10:58:21;;;;;;;7.75;1.33;;;7.90;99.90;;;;;;4964069;28;20043;-94
2022/12/26 11:00:52;;;;;;;2.88;0.60;;;8.00;99.90;;;;;;4975716;28;20027;-93
2022/12/26 11:03:21;;;;;;;5.22;0.95;;;8.20;99.90;;;;;;4979663;28;20032;-96
2022/12/26 11:06:05;;;;;;;6.43;1.30;;;8.40;99.90;;;;;;4976980;28;20051;-95
2022/12/26 11:08:50;;;;;;;1.55;0.68;;;8.50;99.90;;;;;;4995374;28;20023;-94
2022/12/26 11:11:51;;;;;;;5.57;0.90;;;8.70;99.90;;;;;;4995110;28;20038;-95
2022/12/26 11:14:35;;;;;;;7.95;1.05;;;8.80;99.90;;;;;;4972222;28;20055;-96
2022/12/26 11:17:07;;;;;;;3.45;0.68;;;8.90;99.90;;;;;;4986121;28;20062;-95
2022/12/26 11:19:41;;;;;;;5.13;0.85;;;8.80;98.50;;;;;;4970467;28;20038;-96
2022/12/26 11:22:23;;;;;;;4.88;1.00;;;8.80;98.50;;;;;;4992188;28;20107;-94
2022/12/26 11:25:08;;;;;;;6.32;0.80;;;8.80;98.50;;;;;;4972565;28;20100;-95
2022/12/26 11:27:35;;;;;;;2.42;0.90;;;8.90;97.80;;;;;;4992814;28;20086;-95
2022/12/26 11:30:12;;;;;;;4.85;0.73;;;9.00;97.90;;;;;;4970475;28;20057;-92
2022/12/26 11:32:40;;;;;;;2.05;0.80;;;9.10;97.60;;;;;;4994648;28;20027;-92
2022/12/26 11:35:14;;;;;;;5.55;1.27;;;9.30;97.60;;;;;;4991263;28;20477;-94
2022/12/26 11:37:43;;;;;;;4.68;0.80;;;9.70;97.40;;;;;;4969490;28;20031;-94
2022/12/26 11:40:20;;;;;;;1.23;0.60;;;9.80;95.60;;;;;;4986424;28;20106;-94
2022/12/26 11:42:58;;;;;;;9.63;1.67;;;9.80;94.10;;;;;;4971441;28;20039;-96
2022/12/26 11:45:29;;;;;;;5.60;1.45;;;9.90;94.30;;;;;;4990707;28;20031;-93
2022/12/26 11:47:58;;;;;;;1.17;0.70;;;9.90;94.00;;;;;;4970381;28;20019;-93
2022/12/26 11:50:27;;;;;;;5.40;1.13;;;10.00;93.00;;;;;;4989434;28;20054;-95
2022/12/26 11:52:56;;;;;;;2.03;0.55;;;10.00;92.40;;;;;;4965857;28;20031;-95
2022/12/26 11:55:25;;;;;;;5.80;1.00;;;10.10;92.40;;;;;;4968928;28;20027;-95
2022/12/26 11:58:00;;;;;;;7.80;0.80;;;10.20;92.20;;;;;;4967759;28;20023;-93
2022/12/26 12:00:27;;;;;;;8.35;0.80;;;10.30;91.90;;;;;;4982112;28;20046;-94
2022/12/26 12:02:53;;;;;;;4.70;1.67;;;10.40;91.30;;;;;;4971338;28;20035;-94
2022/12/26 12:05:27;;;;;;;6.50;0.68;;;10.40;90.60;;;;;;4971038;28;20034;-94
2022/12/26 12:08:21;;;;;;;2.90;0.90;;;10.40;90.70;;;;;;4991573;28;20059;-94
2022/12/26 12:11:06;;;;;;;6.15;1.00;;;10.40;90.20;;;;;;4968726;28;20102;-94
2022/12/26 12:13:40;;;;;;;2.80;0.70;;;10.40;90.00;;;;;;4975262;28;20010;-93
2022/12/26 12:16:31;;;;;;;4.10;1.55;;;10.50;90.00;;;;;;4973517;28;20035;-93
2022/12/26 12:19:03;;;;;;;;;;;10.70;89.90;;;;;;4986367;28;20031;-94
2022/12/26 12:21:45;;;;;;;6.40;1.40;;;10.90;89.50;;;;;;4988667;28;19910;-93
2022/12/26 12:24:35;;;;;;;1.30;0.40;;;11.00;87.70;;;;;;4971824;28;20052;-94
2022/12/26 12:27:30;;;;;;;7.40;1.45;;;11.10;87.20;;;;;;4978966;28;20030;-92
2022/12/26 12:30:15;;;;;;;10.70;1.90;;;11.20;86.20;;;;;;4989365;28;20038;-95
2022/12/26 12:33:01;;;;;;;1.90;0.77;;;11.30;86.50;;;;;;4991439;28;20101;-95
2022/12/26 12:35:42;;;;;;;5.93;1.10;;;11.40;85.80;;;;;;4972887;28;20026;-94
2022/12/26 12:38:17;;;;;;;2.33;0.55;;;11.50;85.40;;;;;;4953946;29;20038;-92
2022/12/26 12:40:48;;;;;;;2.90;0.63;;;11.60;83.80;;;;;;4972778;29;20037;-95
2022/12/26 12:43:33;;;;;;;4.10;0.73;;;11.50;82.60;;;;;;4970703;29;20022;-95
2022/12/26 12:46:07;;;;;;;3.13;0.70;;;11.40;82.10;;;;;;4974219;29;20030;-94
2022/12/26 12:48:51;;;;;;;6.97;1.08;;;11.50;82.50;;;;;;4955290;28;20046;-94
2022/12/26 12:51:51;;;;;;;6.30;1.40;;;11.60;82.10;;;;;;4970867;29;20026;-96
2022/12/26 12:54:55;;;;;;;3.35;0.82;;;11.70;81.80;;;;;;4969543;29;20031;-94
2022/12/26 12:57:47;;;;;;;6.15;1.65;;;11.80;81.00;;;;;;4969950;28;20019;-95
2022/12/26 13:00:16;;;;;;;4.75;1.00;;;11.80;80.80;;;;;;4967514;29;20039;-95
2022/12/26 13:02:57;;;;;;;2.50;0.90;;;11.80;80.10;;;;;;4971166;29;20039;-93
2022/12/26 13:05:32;;;;;;;5.40;1.00;;;11.90;81.40;;;;;;4972477;28;20026;-95
2022/12/26 13:08:08;;;;;;;4.00;0.90;;;12.00;79.80;;;;;;4955427;29;20031;-94
2022/12/26 13:10:41;;;;;;;6.72;1.00;;;11.90;78.60;;;;;;4987270;28;20035;-93
2022/12/26 13:13:33;;;;;;;3.75;1.20;;;11.90;78.80;;;;;;4952598;29;20058;-94
2022/12/26 13:16:14;;;;;;;3.70;1.00;;;11.80;79.10;;;;;;4986527;28;20051;-95
2022/12/26 13:18:51;;;;;;;6.05;1.50;;;11.90;79.00;;;;;;4967256;29;20039;-94
2022/12/26 13:21:18;;;;;;;5.68;1.27;;;12.00;79.10;;;;;;4967629;29;20027;-94
2022/12/26 13:27:02;;;;;;;2.45;0.80;;;12.10;78.20;;;;;;4967624;29;20042;-93
2022/12/26 13:29:38;;;;;;;4.80;1.00;;;12.30;78.00;;;;;;4962245;28;20054;-95
2022/12/26 13:32:18;;;;;;;5.82;0.60;;;12.30;77.60;;;;;;4980681;28;20031;-95
2022/12/26 13:34:45;;;;;;;8.63;1.10;;;12.20;76.90;;;;;;4948844;29;20079;-95
2022/12/26 13:37:36;;;;;;;6.45;1.30;;;12.20;77.20;;;;;;4945254;29;20038;-95
2022/12/26 13:40:11;;;;;;;5.38;1.02;;;12.30;77.10;;;;;;4962837;29;20110;-94
2022/12/26 13:45:36;;;;;;;3.20;0.77;;;12.60;75.90;;;;;;4965817;29;20059;-95
2022/12/26 13:48:25;;;;;;;5.60;1.52;;;12.50;75.40;;;;;;4966812;29;20107;-95
2022/12/26 13:51:30;;;;;;;2.85;1.20;;;12.40;75.70;;;;;;4950413;29;20039;-96
2022/12/26 13:54:09;;;;;;;3.13;0.80;;;12.50;75.30;;;;;;4971488;28;20033;-95
2022/12/26 13:56:40;;;;;;;3.97;0.90;;;12.60;75.60;;;;;;4947564;29;20152;-95
2022/12/26 13:59:06;;;;;;;4.05;1.10;;;12.60;74.90;;;;;;4944503;29;20035;-95
2022/12/26 14:01:54;;;;;;;3.88;0.90;;;12.60;74.90;;;;;;4948872;29;20126;-95
2022/12/26 14:04:56;;;;;;;3.83;1.25;;;12.60;75.10;;;;;;4968481;29;20035;-95
2022/12/26 14:07:29;;;;;;;5.57;1.42;;;11.90;76.00;;;;;;4965419;29;20126;-95
2022/12/26 14:10:27;;;;;;;3.45;0.80;;;11.80;76.50;;;;;;4949098;29;20067;-94
2022/12/26 14:13:01;;;;;;;4.57;1.60;;;11.90;76.70;;;;;;4968284;29;20028;-95
2022/12/26 14:15:48;;;;;;;8.45;0.98;;;11.90;76.40;;;;;;4968080;29;20015;-95
2022/12/26 14:18:33;;;;;;;7.43;1.30;;;11.90;76.50;;;;;;4969171;29;20043;-95
2022/12/26 14:21:32;;;;;;;4.47;1.20;;;12.00;76.50;;;;;;4949802;29;20027;-95
2022/12/26 14:24:42;;;;;;;7.28;1.83;;;12.10;76.10;;;;;;4950706;29;20130;-95
2022/12/26 14:27:24;;;;;;;8.00;1.23;;;11.60;76.30;;;;;;4960616;28;20095;-94
2022/12/26 14:30:03;;;;;;;4.40;1.27;;;10.80;77.80;;;;;;4962325;29;20100;-95
2022/12/26 14:32:54;;;;;;;3.38;0.75;;;9.80;79.90;;;;;;4951900;29;20050;-95
2022/12/26 14:35:43;;;;;;;2.30;0.80;;;9.00;82.10;;;;;;4952865;29;20231;-94
2022/12/26 14:38:24;;;;;;;3.55;0.90;;;8.40;84.40;;;;;;4955765;29;20051;-95
2022/12/26 14:44:18;;;;;;;5.35;1.08;;;7.50;87.90;;;;;;4970932;28;20049;-94
2022/12/26 14:46:47;;;;;;;;;;;7.20;89.10;;;;;;4958654;29;20008;-92
2022/12/26 14:49:30;;;;;;;3.88;1.00;;;7.10;90.00;;;;;;4954985;29;19953;-94
2022/12/26 14:52:25;;;;;;;9.80;3.13;;;7.00;90.30;;;;;;4954954;29;20031;-93
2022/12/26 14:54:54;;;;;;;5.05;1.05;;;6.80;90.70;;;;;;4952326;29;20032;-93
2022/12/26 14:57:45;;;;;;;5.47;1.13;;;6.70;91.10;;;;;;4985925;28;20043;-94
2022/12/26 15:00:20;;;;;;;6.47;1.55;;;6.60;91.60;;;;;;4956259;29;20035;-92
2022/12/26 15:03:17;;;;;;;5.40;1.40;;;6.50;92.30;;;;;;4955569;29;20035;-93
2022/12/26 15:05:47;;;;;;;3.97;1.30;;;6.40;92.40;;;;;;4916678;29;20037;-92
2022/12/26 15:08:42;;;;;;;6.28;1.48;;;6.40;92.80;;;;;;4899463;29;20100;-93
2022/12/26 15:11:27;;;;;;;5.30;1.45;;;6.30;93.10;;;;;;4899557;29;20069;-93
2022/12/26 15:14:14;;;;;;;9.73;2.28;;;6.20;93.50;;;;;;4913955;29;20040;-94
2022/12/26 15:16:58;;;;;;;3.58;1.15;;;6.20;93.90;;;;;;4910917;29;20032;-92
2022/12/26 15:19:42;;;;;;;3.95;1.10;;;6.20;94.70;;;;;;4911264;29;20127;-93
2022/12/26 15:22:16;;;;;;;7.82;1.30;;;6.10;94.80;;;;;;4913770;29;20129;-93
2022/12/26 15:24:56;;;;;;;5.85;1.15;;;6.10;95.30;;;;;;4910612;29;20112;-92
2022/12/26 15:27:38;;;;;;;5.00;0.93;;;6.10;95.80;;;;;;4912226;29;20025;-94
2022/12/26 15:30:20;;;;;;;7.72;1.60;;;6.10;96.20;;;;;;4909013;29;20032;-94
2022/12/26 15:32:57;;;;;;;5.60;1.10;;;6.00;96.40;;;;;;4894797;29;20029;-93
2022/12/26 15:35:43;;;;;;;7.78;1.23;;;6.00;96.70;;;;;;4910212;29;20048;-94